Latest Weather Observations for Kowanyama

IDQ60801

Issued at 6:02 pm EST Monday 22 April 2019 (issued every 10 minutes, with the page automatically refreshed every 10 minutes)

About weather observations | Map of weather stations | Latest weather observations for QLD | Other Formats
Station Details ID: 029038 Name: KOWANYAMA AIRPORT Lat: -15.48 Lon: 141.75 Height: 9.6 m
Data from the previous 72 hours. | See also: Recent months at Kowanyama
Date/Time
EST
Temp
°C
App
Temp
°C
Dew
Point
°C
Rel
Hum
%
Delta-T
°C
Wind Press
QNH
hPa
Press
MSL
hPa
Rain since
9am
mm
Dir  Spd
km/h
Gust
km/h
Spd
kts
Gust
kts
22/06:00pm 27.2 29.3 21.7 72 3.7 E 13 35 7 19 1010.7 1010.6 1.6
22/05:30pm 26.5 28.1 21.5 74 3.3 NE 15 20 8 11 1009.9 1009.8 1.2
22/05:25pm 27.8 29.5 21.6 69 4.1 ESE 15 20 8 11 1009.8 1009.7 0.4
22/05:00pm 33.0 35.7 20.2 47 8.5 S 6 9 3 5 1009.4 1009.3 0.0
22/04:30pm 33.1 34.9 19.6 45 8.9 S 9 13 5 7 1009.2 1009.1 0.0
22/04:00pm 32.7 33.8 19.6 46 8.6 SSE 13 17 7 9 1009.2 1009.1 0.0
22/03:30pm 33.3 35.2 20.5 47 8.6 SE 11 20 6 11 1009.2 1009.1 0.0
22/03:00pm 31.9 34.9 19.2 47 8.3 SE 2 7 1 4 1009.2 1009.1 0.0
22/02:30pm 32.4 34.6 20.3 48 8.0 SSE 9 11 5 6 1009.5 1009.4 0.0
22/02:00pm 33.2 34.9 19.3 44 9.1 ESE 9 15 5 8 1009.9 1009.8 0.0
22/01:30pm 33.3 35.0 19.4 44 9.2 E 9 17 5 9 1010.1 1010.0 0.0
22/01:00pm 33.5 36.0 21.0 48 8.4 ENE 9 22 5 12 1010.6 1010.5 0.0
22/12:30pm 31.5 32.9 20.4 51 7.4 E 13 19 7 10 1011.1 1011.0 0.0
22/12:00pm 32.6 33.6 20.2 48 8.2 ENE 15 22 8 12 1011.5 1011.4 0.0
22/11:30am 31.6 32.9 20.2 50 7.6 E 13 22 7 12 1011.9 1011.8 0.0
22/11:00am 32.0 33.9 20.6 51 7.6 NE 11 19 6 10 1012.4 1012.3 0.0
22/10:30am 30.8 32.1 20.1 53 7.1 ENE 13 19 7 10 1012.8 1012.7 0.0
22/10:00am 30.5 32.7 20.4 54 6.7 ENE 9 13 5 7 1012.8 1012.7 0.0
22/09:30am 29.9 32.4 21.0 59 5.9 NE 9 15 5 8 1012.9 1012.8 0.0
22/09:00am 29.1 32.2 21.1 62 5.3 NE 6 11 3 6 1012.6 1012.5 0.0
22/08:30am 27.3 30.4 21.1 69 4.1 NE 6 9 3 5 1012.7 1012.6 0.0
22/08:00am 25.3 28.9 22.0 82 2.2 NE 6 7 3 4 1012.5 1012.4 0.0
22/07:30am 23.5 27.0 21.8 90 1.1 ENE 6 9 3 5 1012.1 1012.0 0.0
22/07:00am 22.1 26.3 20.9 93 0.8 CALM 0 6 0 3 1011.6 1011.5 0.0
22/06:30am 22.2 26.0 21.0 93 0.8 ENE 2 6 1 3 1011.4 1011.3 0.0
22/06:00am 22.4 25.8 21.6 95 0.5 E 6 7 3 4 1011.2 1011.1 0.0
22/05:30am 22.2 26.5 21.2 94 0.7 CALM 0 0 0 0 1010.9 1010.8 0.0
22/05:00am 22.0 26.0 20.6 92 0.9 CALM 0 0 0 0 1010.5 1010.4 0.0
22/04:30am 22.3 26.4 20.8 91 1.0 CALM 0 0 0 0 1010.6 1010.5 0.0
22/04:00am 22.7 27.1 21.3 92 0.9 CALM 0 0 0 0 1010.6 1010.5 0.0
22/03:30am 22.7 26.9 21.0 90 1.1 CALM 0 0 0 0 1010.7 1010.6 0.0
22/03:00am 23.0 26.2 21.3 90 1.1 SE 6 9 3 5 1010.8 1010.7 0.0
22/02:30am 23.3 26.7 21.6 90 1.1 ENE 6 9 3 5 1010.9 1010.8 0.0
22/02:00am 23.4 26.3 21.8 91 1.1 NE 9 15 5 8 1011.0 1010.9 0.0
22/01:30am 23.0 27.4 21.3 90 1.1 CALM 0 0 0 0 1011.1 1011.0 0.0
22/01:00am 23.2 27.5 21.1 88 1.4 CALM 0 0 0 0 1011.6 1011.5 0.0
22/12:30am 23.7 28.1 21.4 87 1.5 CALM 0 0 0 0 1011.7 1011.6 0.0
22/12:00am 24.5 29.1 21.8 85 1.8 CALM 0 0 0 0 1011.8 1011.7 0.0
 
Date/Time
EST
Temp
°C
App
Temp
°C
Dew
Point
°C
Rel
Hum
%
Delta-T
°C
Wind Press
QNH
hPa
Press
MSL
hPa
Rain since
9am
mm
Dir  Spd
km/h
Gust
km/h
Spd
kts
Gust
kts
21/11:30pm 24.7 29.2 21.6 83 2.1 CALM 0 6 0 3 1012.0 1011.9 0.0
21/11:00pm 24.7 28.8 21.6 83 2.1 SW 2 6 1 3 1012.0 1011.9 0.0
21/10:30pm 24.7 28.1 21.6 83 2.1 SSW 6 9 3 5 1011.9 1011.8 0.0
21/10:00pm 24.8 29.3 21.5 82 2.2 CALM 0 0 0 0 1012.1 1012.0 0.0
21/09:30pm 25.3 29.8 21.6 80 2.5 CALM 0 0 0 0 1012.0 1011.9 0.0
21/09:00pm 25.5 30.1 21.8 80 2.5 CALM 0 0 0 0 1011.8 1011.7 0.0
21/08:30pm 25.6 30.1 21.5 78 2.7 CALM 0 0 0 0 1011.6 1011.5 0.0
21/08:00pm 26.1 30.7 21.7 77 2.9 CALM 0 0 0 0 1011.1 1011.0 0.0
21/07:30pm 26.5 29.9 21.7 75 3.2 WNW 6 7 3 4 1010.6 1010.5 0.0
21/07:00pm 27.3 30.7 21.6 71 3.8 WNW 6 9 3 5 1010.2 1010.1 0.0
21/06:30pm 28.3 31.3 21.3 65 4.7 WNW 7 9 4 5 1009.8 1009.7 0.0
21/06:00pm 30.2 32.3 21.0 58 6.1 NW 11 15 6 8 1009.6 1009.5 0.0
21/05:30pm 32.8 35.0 19.3 45 8.9 NE 6 7 3 4 1009.1 1009.0 0.0
21/05:00pm 32.9 33.7 16.3 37 10.5 E 7 11 4 6 1008.8 1008.7 0.0
21/04:30pm 33.3 33.6 17.1 38 10.3 ESE 11 17 6 9 1008.6 1008.5 0.0
21/04:00pm 33.5 33.9 17.2 37 10.4 ESE 11 15 6 8 1008.6 1008.5 0.0
21/03:30pm 33.4 34.5 16.7 36 10.6 NE 6 11 3 6 1008.7 1008.6 0.0
21/03:00pm 33.6 34.4 18.1 39 10.1 ESE 11 17 6 9 1008.9 1008.8 0.0
21/02:30pm 33.8 34.7 17.5 38 10.5 E 9 17 5 9 1009.4 1009.3 0.0
21/02:00pm 33.3 32.7 16.6 36 10.6 SSE 15 22 8 12 1009.8 1009.7 0.0
21/01:30pm 32.6 32.9 16.0 36 10.4 SE 9 20 5 11 1010.1 1010.0 0.0
21/01:00pm 32.9 33.6 17.1 39 10.1 SSE 9 17 5 9 1010.4 1010.3 0.0
21/12:30pm 32.4 32.2 16.7 39 9.9 ESE 13 22 7 12 1010.9 1010.8 0.0
21/12:00pm 31.4 31.9 18.4 46 8.4 SE 13 19 7 10 1011.2 1011.1 0.0
21/11:30am 31.2 31.6 18.2 46 8.4 ESE 13 17 7 9 1011.8 1011.7 0.0
21/11:00am 30.6 31.1 18.3 47 7.9 ENE 13 20 7 11 1012.1 1012.0 0.0
21/10:30am 29.9 30.5 18.7 51 7.2 ESE 13 17 7 9 1012.5 1012.4 0.0
21/10:00am 28.7 29.6 19.3 56 6.1 ESE 13 20 7 11 1012.6 1012.5 0.0
21/09:30am 28.1 29.8 19.3 58 5.7 E 9 15 5 8 1012.5 1012.4 0.0
21/09:00am 27.1 28.1 19.4 62 5.0 E 13 19 7 10 1012.4 1012.3 0.0
21/08:30am 26.2 27.6 19.6 67 4.3 ENE 11 15 6 8 1012.4 1012.3 0.0
21/08:00am 25.5 28.3 20.5 74 3.3 E 6 9 3 5 1012.2 1012.1 0.0
21/07:30am 24.2 27.5 20.7 81 2.3 E 4 7 2 4 1012.0 1011.9 0.0
21/07:00am 22.7 26.6 20.4 87 1.5 CALM 0 0 0 0 1011.7 1011.6 0.0
21/06:30am 23.1 26.0 20.6 86 1.6 ENE 6 7 3 4 1011.5 1011.4 0.0
21/06:00am 23.2 26.1 20.7 86 1.6 ENE 6 9 3 5 1011.0 1010.9 0.0
21/05:30am 23.2 26.2 20.9 87 1.5 NE 6 7 3 4 1010.6 1010.5 0.0
21/05:00am 23.5 26.6 21.4 88 1.4 E 7 9 4 5 1010.5 1010.4 0.0
21/04:30am 23.9 27.1 21.6 87 1.5 E 7 9 4 5 1010.3 1010.2 0.0
21/04:00am 24.0 27.2 21.7 87 1.5 ENE 7 11 4 6 1010.0 1009.9 0.0
21/03:30am 24.1 27.7 22.0 88 1.4 NW 6 7 3 4 1009.9 1009.8 0.0
21/03:00am 24.0 28.7 21.9 88 1.4 CALM 0 0 0 0 1010.2 1010.1 0.0
21/02:30am 24.1 28.3 21.8 87 1.5 ESE 2 6 1 3 1010.6 1010.5 0.0
21/02:00am 23.7 27.6 21.2 86 1.6 NNE 2 7 1 4 1010.9 1010.8 0.0
21/01:30am 23.7 26.6 21.0 85 1.8 NNE 7 9 4 5 1011.2 1011.1 0.0
21/01:00am 24.6 27.7 21.5 83 2.1 ESE 7 9 4 5 1011.5 1011.4 0.0
21/12:30am 24.3 27.5 21.2 83 2.0 SSE 6 9 3 5 1011.6 1011.5 0.0
21/12:00am 24.6 27.7 21.1 81 2.3 S 6 7 3 4 1011.6 1011.5 0.0
 
Date/Time
EST
Temp
°C
App
Temp
°C
Dew
Point
°C
Rel
Hum
%
Delta-T
°C
Wind Press
QNH
hPa
Press
MSL
hPa
Rain since
9am
mm
Dir  Spd
km/h
Gust
km/h
Spd
kts
Gust
kts
20/11:30pm 24.4 27.4 20.9 81 2.3 SSW 6 7 3 4 1011.8 1011.7 0.0
20/11:00pm 24.6 28.1 21.1 81 2.3 SW 4 6 2 3 1011.9 1011.8 0.0
20/10:30pm 24.8 28.7 21.1 80 2.4 SW 2 6 1 3 1011.8 1011.7 0.0
20/10:00pm 25.0 28.0 20.9 78 2.7 SW 6 7 3 4 1011.8 1011.7 0.0
20/09:30pm 25.3 28.3 20.8 76 3.0 SSW 6 9 3 5 1011.8 1011.7 0.0
20/09:00pm 25.5 29.1 21.2 77 2.8 SSW 4 6 2 3 1011.7 1011.6 0.0
20/08:30pm 25.8 28.9 21.0 75 3.2 WSW 6 7 3 4 1011.4 1011.3 0.0
20/08:00pm 25.8 28.6 20.4 72 3.5 WSW 6 9 3 5 1011.0 1010.9 0.0
20/07:30pm 26.5 30.7 21.0 72 3.6 CALM 0 0 0 0 1010.4 1010.3 0.0
20/07:00pm 27.3 30.4 19.4 62 5.1 E 2 6 1 3 1010.1 1010.0 0.0
20/06:30pm 28.8 30.9 18.9 55 6.4 ESE 6 9 3 5 1009.8 1009.7 0.0
20/06:00pm 30.6 32.1 19.0 50 7.5 SE 9 11 5 6 1009.5 1009.4 0.0
20/05:30pm 31.7 32.2 18.3 45 8.7 ESE 13 17 7 9 1009.3 1009.2 0.0
20/05:00pm 32.0 32.4 18.2 43 8.9 SSE 13 15 7 8 1009.2 1009.1 0.0
20/04:30pm 32.0 32.3 17.1 41 9.5 E 11 17 6 9 1009.2 1009.1 0.0
20/04:00pm 32.1 32.5 17.2 41 9.5 E 11 19 6 10 1009.1 1009.0 0.0
20/03:30pm 31.7 32.6 18.3 45 8.7 ESE 11 15 6 8 1009.4 1009.3 0.0
20/03:00pm 32.2 33.2 17.7 42 9.3 ESE 9 15 5 8 1009.6 1009.5 0.0
20/02:30pm 32.5 32.0 18.7 44 9.0 SE 19 26 10 14 1009.8 1009.7 0.0
20/02:00pm 32.5 33.2 17.9 41 9.4 E 11 17 6 9 1010.1 1010.0 0.0
20/01:30pm 32.2 32.3 18.4 44 8.9 E 15 22 8 12 1010.5 1010.4 0.0
20/01:00pm 31.6 31.0 17.5 43 9.0 ESE 17 26 9 14 1011.0 1010.9 0.0
20/12:30pm 31.4 30.9 17.7 44 8.8 ESE 17 24 9 13 1011.4 1011.3 0.0
20/12:00pm 31.0 31.0 18.0 45 8.3 E 15 24 8 13 1012.1 1012.0 0.0
20/11:30am 30.2 29.5 18.3 49 7.6 E 19 26 10 14 1012.7 1012.6 0.0
20/11:00am 29.8 29.1 18.3 50 7.4 E 19 30 10 16 1013.2 1013.1 0.0
20/10:30am 29.9 29.8 18.7 51 7.2 E 17 28 9 15 1013.4 1013.3 0.0
20/10:00am 28.8 29.4 18.6 54 6.6 ESE 13 19 7 10 1013.7 1013.6 0.0
20/09:30am 27.5 28.2 18.8 59 5.6 ESE 13 17 7 9 1013.7 1013.6 0.0
20/09:00am 26.7 27.5 19.1 63 4.9 ESE 13 17 7 9 1013.6 1013.5 0.0
20/08:30am 25.4 26.2 19.1 68 4.0 ESE 13 17 7 9 1013.6 1013.5 0.0
20/08:00am 24.1 25.6 19.0 73 3.2 ESE 9 15 5 8 1013.4 1013.3 0.0
20/07:30am 22.6 24.3 19.4 82 2.0 SE 9 11 5 6 1013.2 1013.1 0.0
20/07:00am 21.4 23.6 19.5 89 1.2 SE 7 7 4 4 1012.9 1012.8 0.0
20/06:30am 21.2 23.4 19.3 89 1.2 SSE 6 7 3 4 1012.6 1012.5 0.0
20/06:00am 21.5 23.9 19.6 89 1.2 SE 6 7 3 4 1012.2 1012.1 0.0
20/05:30am 21.9 24.4 19.8 88 1.3 SE 6 7 3 4 1012.0 1011.9 0.0
20/05:00am 22.3 24.8 19.8 86 1.6 E 6 9 3 5 1011.9 1011.8 0.0
20/04:30am 22.7 25.2 20.2 86 1.6 ESE 7 9 4 5 1011.8 1011.7 0.0
20/04:00am 22.3 24.8 20.2 88 1.4 SE 7 9 4 5 1011.6 1011.5 0.0
20/03:30am 22.5 25.2 20.2 87 1.5 SE 6 7 3 4 1011.6 1011.5 0.0
20/03:00am 23.1 26.4 19.9 82 2.1 ESE 2 6 1 3 1011.8 1011.7 0.0
20/02:30am 23.4 25.6 19.5 79 2.5 SE 7 9 4 5 1011.9 1011.8 0.0
20/02:00am 24.1 26.6 19.8 77 2.8 E 6 9 3 5 1012.1 1012.0 0.0
20/01:30am 24.6 26.9 19.9 75 3.0 E 7 11 4 6 1012.3 1012.2 0.0
20/01:00am 24.9 27.2 19.9 74 3.2 E 7 11 4 6 1012.6 1012.5 0.0
20/12:30am 25.0 27.3 19.8 73 3.4 E 7 9 4 5 1012.8 1012.7 0.0
20/12:00am 25.6 27.5 19.7 70 3.8 E 9 15 5 8 1012.9 1012.8 0.0
 
Date/Time
EST
Temp
°C
App
Temp
°C
Dew
Point
°C
Rel
Hum
%
Delta-T
°C
Wind Press
QNH
hPa
Press
MSL
hPa
Rain since
9am
mm
Dir  Spd
km/h
Gust
km/h
Spd
kts
Gust
kts
19/11:30pm 25.4 28.1 20.6 75 3.1 SE 7 11 4 6 1012.8 1012.7 0.0
19/11:00pm 24.7 28.7 21.4 82 2.2 ESE 2 7 1 4 1012.9 1012.8 0.0
19/10:30pm 25.1 29.3 21.0 78 2.7 CALM 0 0 0 0 1012.8 1012.7 0.0
19/10:00pm 25.4 28.4 20.9 76 3.0 SSW 6 7 3 4 1012.8 1012.7 0.0
19/09:30pm 25.6 29.1 21.1 76 3.0 SSW 4 7 2 4 1012.9 1012.8 0.0
19/09:00pm 25.3 28.4 21.0 77 2.8 SW 6 7 3 4 1012.8 1012.7 0.0
19/08:30pm 24.5 27.6 20.2 77 2.8 W 4 9 2 5 1012.6 1012.5 0.0
19/08:00pm 25.6 29.5 20.4 73 3.4 CALM 0 0 0 0 1012.0 1011.9 0.0
19/07:30pm 26.1 29.8 20.0 69 4.0 CALM 0 0 0 0 1011.7 1011.6 0.0
19/07:00pm 26.5 30.0 19.6 66 4.5 CALM 0 0 0 0 1011.4 1011.3 0.0
19/06:30pm 28.3 30.3 18.7 56 6.2 ESE 6 7 3 4 1011.2 1011.1 0.0

Other formats

Comma delimited format used in spreadsheet applications
http://www.bom.gov.au/fwo/IDQ60801/IDQ60801.94268.axf

JavaScript Object Notation format (JSON) in row-major order
http://www.bom.gov.au/fwo/IDQ60801/IDQ60801.94268.json

Data quality

Most of these data are generated automatically and are frequently updated. Quality checks on data are not normally performed. It is possible for incorrect values to appear. Refer to information at About Latest Weather Observations and please check the disclaimer before using these data.